Nearby METAR Reports

 

EDNY - Friedrichshafen, Germany
Distance from station: ONO 32km
aktuell: 10.12.2016 03:31

 Wind von O
Wind: O 4 km/h
Visibility: 0 km
2016/12/10 02:31 EDNY 100231Z AUTO 08002KT 0200 0150/ R24/0300V0450N FZFG FEW001 M02/M03 Q1030
LSZR - Rheineck/Altenrh, Switzerland
Distance from station: OSO 37km
aktuell: 10.12.2016 03:50
Freezing fog, geschlossene Wolkendecke
Freezing fog, geschlossene Wolkendecke
 Wind von SSW
Wind: SSW 6 km/h
Temperatur: 0°C
Taupunkt: 0°C
Luftfeuchte: 100%
Luftdruck: 1029 hPa
Zusammenfassung: Freezing Fog
Clouds: geschlossene Wolkendecke
Visibility: 0 km
Cloud details: geschlossene Wolkendecke 30 m
2016/12/10 02:50 LSZR 100250Z AUTO 21003KT 0150 R10/0700U FZFG VV001 M00/M00 Q1029
LSMD - Dubendorf, Switzerland
Distance from station: SW 40km
aktuell: 10.12.2016 03:50
Mist, teilweise bewölkt
Mist, teilweise bewölkt
 Wind von OSO
Wind: OSO 4 km/h
Temperatur: -3°C
Taupunkt: -4°C
Luftfeuchte: 93%
Luftdruck: 1030 hPa
Zusammenfassung: Mist
Clouds: teilweise bewölkt
Visibility: 2.3 miles
Cloud details: teilweise bewölkt 30 m
2016/12/10 02:50 LSMD 100250Z AUTO 11002KT 1400NDV R11/0375V0750D R29/1500VP2000D BR SCT001 M03/M04 Q1030 RMK
 
LSZH - Zurich-Kloten (a, Switzerland
Distance from station: WSW 44km
aktuell: 10.12.2016 03:50
Patches of fog, Few clouds
Patches of fog, Few clouds
 Wind von O
Wind: O 2 km/h
Temperatur: -5°C
Taupunkt: -5°C
Luftfeuchte: 100%
Luftdruck: 1030 hPa
Zusammenfassung: Patches of Fog
Clouds: Few Clouds
Visibility: 4 km
Cloud details: Few Clouds 30 m
2016/12/10 02:50 LSZH 100250Z 08001KT 3500 R14/0900U R16/P2000N R28/P2000N R34/P2000N BCFG FEW001 M05/M05 Q1030 NOSIG
LOIH - Hohenems-Dornbir, Austria
Distance from station: OSO 51km
aktuell: 31.10.2016 17:00
NOT Current
geschlossene Wolkendecke
geschlossene Wolkendecke
 Wind von calm
Wind: Windstill
Temperatur: 10°C
Taupunkt: 9°C
Luftfeuchte: 94%
Luftdruck: 1026 hPa
Clouds: geschlossene Wolkendecke
Cloud details: geschlossene Wolkendecke 305 m
2016/10/31 16:00 LOIH 311600Z 00000KT 10KM OVC010ST 10/09 Q1026 RMK OVC
LSME - Emmen, Switzerland
Distance from station: SW 82km
aktuell: 10.12.2016 03:50
Freezing fog, teilweise bewölkt
Freezing fog, teilweise bewölkt
 Wind von calm
Wind: Windstill
Temperatur: -4°C
Taupunkt: -4°C
Luftfeuchte: 100%
Luftdruck: 1030 hPa
Zusammenfassung: Freezing Fog
Clouds: teilweise bewölkt
Visibility: 0.4 mile
Cloud details: teilweise bewölkt 61 m
2016/12/10 02:50 LSME 100250Z AUTO 00000KT 0250NDV R04/0300N R22/0275V0375N FZFG SCT002 M04/M04 Q1030 RMK
 
LSZC - Buochs, Switzerland
Distance from station: SW 89km
aktuell: 10.12.2016 03:50
klar
klar
 Wind von varies
Wind: varies 6 km/h
Temperatur: -1°C
Taupunkt: -2°C
Luftfeuchte: 93%
Luftdruck: 1030 hPa
Clouds: klar
Visibility: 10 km
2016/12/10 02:50 LSZC 100250Z AUTO VRB03KT 9999 NCD M01/M02 Q1030
ETHL - Laupheim (ger-Ar, Germany
Distance from station: NO 92km
aktuell: 10.12.2016 03:20
Few Clouds
Few Clouds
 Wind von SSW
Wind: SSW 4 km/h
Temperatur: -2°C
Taupunkt: -4°C
Luftfeuchte: 86%
Luftdruck: 1028 hPa
Clouds: Few Clouds
Visibility: 10 km
Cloud details: Few Clouds 6706 m
2016/12/10 02:20 ETHL 100220Z 20002KT 9999 FEW220 M02/M04 Q1028 BLU+
EDJA - Memmingen Allgau, Germany
Distance from station: ONO 95km
aktuell: 09.12.2016 21:50
NOT Current
stark bewölkt
stark bewölkt
 Wind von SSO
Wind: SSO 6 km/h
Temperatur: 0°C
Taupunkt: -4°C
Luftfeuchte: 75%
Luftdruck: 1030 hPa
Clouds: stark bewölkt
Visibility: 10 km
Cloud details: Few Clouds 1829 m
stark bewölkt 4267 m
2016/12/09 20:50 EDJA 092050Z 15003KT 9999 FEW060 BKN140 M00/M04 Q1030
 
LSMA - Alpnach, Switzerland
Distance from station: SW 95km
aktuell: 10.12.2016 03:50
klar
klar
 Wind von SSW
Wind: SSW 7 km/h
Temperatur: -3°C
gefühlte Temperatur: -6°C
Taupunkt: -4°C
Luftfeuchte: 93%
Luftdruck: 1030 hPa
Clouds: klar
Visibility: 16 miles
2016/12/10 02:50 LSMA 100250Z AUTO 20004KT 170V280 9999NDV NCD M03/M04 Q1030 RMK